WetterOnline ( https://www.wetteronline.de )

Wetter aktuell München

Aktuelles Wetter: München/Stadt (535m)

6-stündlich | Neueste Meldungen
Ortszeit Temperatur Wetter
Di, 15.10. 8:00 9.2° C wolkenlos
Di, 15.10. 2:00 10.0° C wolkenlos
Mo, 14.10. 20:00 14.3° C wolkenlos
Mo, 14.10. 14:00 22.9° C wolkig
Mo, 14.10. 8:00 9.3° C wolkenlos
Mo, 14.10. 2:00 11.0° C wolkenlos
So, 13.10. 20:00 16.1° C wolkenlos
So, 13.10. 14:00 24.1° C wolkig
Ortszeit Temperatur Wetter
Di, 15.10. 11:00 17.8° C leicht bewölkt
Di, 15.10. 10:50 17.8° C wolkig
Di, 15.10. 10:40 18.1° C wolkig
Di, 15.10. 10:30 16.6° C leicht bewölkt
Di, 15.10. 10:20 16.6° C leicht bewölkt
Di, 15.10. 10:10 16.0° C leicht bewölkt
Di, 15.10. 10:00 14.4° C wolkenlos
Di, 15.10. 9:30 12.5° C wolkenlos
Di, 15.10. 9:00 10.4° C wolkenlos
Di, 15.10. 8:30 9.5° C wolkenlos
Di, 15.10. 8:00 9.2° C wolkenlos
Ortszeit Relative Feuchte Sichtweite
Di, 15.10. 8:00 96% 50 km
Di, 15.10. 2:00 95% 45 km
Mo, 14.10. 20:00 84% 40 km
Mo, 14.10. 14:00 47% 55 km
Mo, 14.10. 8:00 95% 55 km
Mo, 14.10. 2:00 94% 50 km
So, 13.10. 20:00 87% 40 km
So, 13.10. 14:00 36% 55 km
Ortszeit Relative Feuchte Sichtweite
Di, 15.10. 11:00 51% 40 km
Di, 15.10. 10:50 51% -
Di, 15.10. 10:40 55% -
Di, 15.10. 10:30 59% 45 km
Di, 15.10. 10:20 59% -
Di, 15.10. 10:10 64% -
Di, 15.10. 10:00 76% 55 km
Di, 15.10. 9:30 81% 35 km
Di, 15.10. 9:00 94% 50 km
Di, 15.10. 8:30 95% 30 km
Di, 15.10. 8:00 96% 50 km
Ortszeit Niederschlagsmenge Niederschlagsart
Di, 15.10. 8:00 0.0 l/m2 in 12 Std. -
Di, 15.10. 2:00 0.0 l/m2 in 6 Std. -
Mo, 14.10. 20:00 0.0 l/m2 in 12 Std. -
Mo, 14.10. 14:00 0.0 l/m2 in 6 Std. -
Mo, 14.10. 8:00 0.0 l/m2 in 12 Std. -
Mo, 14.10. 2:00 0.0 l/m2 in 6 Std. -
So, 13.10. 20:00 0.0 l/m2 in 12 Std. -
So, 13.10. 14:00 0.0 l/m2 in 6 Std. -
Ortszeit Niederschlagsmenge Niederschlagsart
Di, 15.10. 11:00 0.0 l/m2 in 1 Std. -
Di, 15.10. 10:50 keine Meldung -
Di, 15.10. 10:40 keine Meldung -
Di, 15.10. 10:30 0.0 l/m2 in 1 Std. -
Di, 15.10. 10:20 keine Meldung -
Di, 15.10. 10:10 keine Meldung -
Di, 15.10. 10:00 0.0 l/m2 in 1 Std. -
Di, 15.10. 9:30 0.0 l/m2 in 1 Std. -
Di, 15.10. 9:00 0.0 l/m2 in 1 Std. -
Di, 15.10. 8:30 0.0 l/m2 in 1 Std. -
Di, 15.10. 8:00 0.0 l/m2 in 1 Std. -
Ortszeit Stärke Spitze Richtung
km/h Bft. km/h Grad Sektor
Di, 15.10. 8:00 7 2 14 180° S
Di, 15.10. 2:00 6 1 11 220° SW
Mo, 14.10. 20:00 4 1 18 220° SW
Mo, 14.10. 14:00 9 2 22 80° O
Mo, 14.10. 8:00 6 1 13 100° O
Mo, 14.10. 2:00 4 1 14 290° W
So, 13.10. 20:00 6 1 17 150° SO
So, 13.10. 14:00 7 2 19 80° O
Ortszeit Stärke Spitze Richtung
km/h Bft. km/h Grad Sektor
Di, 15.10. 11:00 4 1 11 110° O
Di, 15.10. 10:50 4 1 - 110° O
Di, 15.10. 10:40 4 1 - 110° O
Di, 15.10. 10:30 6 1 9 110° O
Di, 15.10. 10:20 6 1 - 110° O
Di, 15.10. 10:10 7 2 - 90° O
Di, 15.10. 10:00 6 1 9 100° O
Di, 15.10. 9:30 4 1 7 170° S
Di, 15.10. 9:00 4 1 11 110° O
Di, 15.10. 8:30 4 1 11 140° SO
Di, 15.10. 8:00 7 2 11 180° S
Ortszeit Untergrenze Bedeckung Gattung
total tief tief mittel hoch
Di, 15.10. 8:00 - 0/8 0/8 - - -
Di, 15.10. 2:00 - 0/8 0/8 - - -
Mo, 14.10. 20:00 - 0/8 0/8 - - -
Mo, 14.10. 14:00 4200 m 7/8 7/8 - - -
Mo, 14.10. 8:00 - 0/8 0/8 - - -
Mo, 14.10. 2:00 - 0/8 0/8 - - -
So, 13.10. 20:00 - 0/8 0/8 - - -
So, 13.10. 14:00 6900 m 8/8 8/8 - - -
Ortszeit Bedeckungsgrad in Achtel und Wolkenuntergrenze
Di, 15.10. 11:00 6(8400m) 7(9000m) 7(9000m)
Di, 15.10. 10:50 6(8400m) 7(9000m) 7(9000m)
Di, 15.10. 10:40 4(8400m) 7(9000m) 7(10500m)
Di, 15.10. 10:30 2(9000m) 5(10500m)
Di, 15.10. 10:20 2(9000m) 5(10500m)
Di, 15.10. 10:10 3(10500m)
Di, 15.10. 10:00 2(10500m)
Di, 15.10. 9:30 keine Wolken
Di, 15.10. 9:00 keine Wolken
Di, 15.10. 8:30 keine Wolken
Di, 15.10. 8:00 keine Wolken
Ortszeit Luftdruck NN (hPa) Tendenz (hPa in 3 Std.)
Di, 15.10. 8:00 1011 - 1,3
Di, 15.10. 2:00 1013 - 0,4
Mo, 14.10. 20:00 1013 - 0,3
Mo, 14.10. 14:00 1013 - 1,8
Mo, 14.10. 8:00 1018 - 0,1
Mo, 14.10. 2:00 1019 + 0,4
So, 13.10. 20:00 1017 + 0,6
So, 13.10. 14:00 1015 - 1,3
Ortszeit Luftdruck NN (hPa) Tendenz (hPa in 3 Std.)
Di, 15.10. 11:00 1008 - 0,8
Di, 15.10. 10:50 1008 keine Meldung
Di, 15.10. 10:40 1008 keine Meldung
Di, 15.10. 10:30 1008 - 0,6
Di, 15.10. 10:20 1008 keine Meldung
Di, 15.10. 10:10 1009 keine Meldung
Di, 15.10. 10:00 1009 - 0,8
Di, 15.10. 9:30 1010 - 0,7
Di, 15.10. 9:00 1010 - 0,6
Di, 15.10. 8:30 1011 - 1,0
Di, 15.10. 8:00 1011 - 1,3
Ortszeit Schneehöhe (cm)
Di, 15.10. 8:00 0
Di, 15.10. 2:00 0
Mo, 14.10. 20:00 0
Mo, 14.10. 14:00 0
Mo, 14.10. 8:00 0
Mo, 14.10. 2:00 0
So, 13.10. 20:00 0
So, 13.10. 14:00 0
Ortszeit Schneehöhe (cm)
Di, 15.10. 11:00 0
Di, 15.10. 10:50 0
Di, 15.10. 10:40 0
Di, 15.10. 10:30 0
Di, 15.10. 10:20 0
Di, 15.10. 10:10 0
Di, 15.10. 10:00 0
Di, 15.10. 9:30 0
Di, 15.10. 9:00 0
Di, 15.10. 8:30 0
Di, 15.10. 8:00 0
Link zu dieser Seite / Seite empfehlen

Das Wetter in ...